createdAt,value
2023-02-16T00:01:53.820Z,48.00
2023-02-16T00:04:26.558Z,49.33
2023-02-16T00:06:54.729Z,44.37
2023-02-16T00:09:22.869Z,47.05
2023-02-16T00:12:09.310Z,49.15
2023-02-16T00:14:37.439Z,46.28
2023-02-16T00:17:05.614Z,46.80
2023-02-16T00:19:37.867Z,46.30
2023-02-16T00:22:05.741Z,43.55
2023-02-16T00:24:32.469Z,48.65
2023-02-16T00:27:00.432Z,51.53
2023-02-16T00:29:28.135Z,48.13
2023-02-16T00:31:55.873Z,49.07
2023-02-16T00:34:30.475Z,46.65
2023-02-16T00:36:58.414Z,53.78
2023-02-16T00:39:26.152Z,44.42
2023-02-16T00:41:55.563Z,46.90
2023-02-16T00:44:38.923Z,48.95
2023-02-16T00:47:32.236Z,47.83
2023-02-16T00:49:58.688Z,44.75
2023-02-16T00:52:33.315Z,48.70
2023-02-16T00:55:02.542Z,47.17
2023-02-16T00:57:34.046Z,57.27
2023-02-16T01:00:06.324Z,44.20
2023-02-16T01:02:32.751Z,45.42
2023-02-16T01:04:59.165Z,48.25
2023-02-16T01:07:44.306Z,48.97
2023-02-16T01:10:29.734Z,46.07
2023-02-16T01:12:56.201Z,53.05
2023-02-16T01:15:25.846Z,43.95
2023-02-16T01:17:52.709Z,47.03
2023-02-16T01:20:22.646Z,53.60
2023-02-16T01:22:49.026Z,52.13
2023-02-16T01:25:15.778Z,45.05
2023-02-16T01:27:43.456Z,46.80
2023-02-16T01:30:16.178Z,50.90
2023-02-16T01:32:42.665Z,48.78
2023-02-16T01:35:10.240Z,47.10
2023-02-16T01:37:36.641Z,50.65
2023-02-16T01:40:03.839Z,43.72
2023-02-16T01:42:51.669Z,51.85
2023-02-16T01:45:28.974Z,49.30
2023-02-16T01:48:02.333Z,54.93
2023-02-16T01:50:52.332Z,49.40
2023-02-16T01:53:26.683Z,47.33
2023-02-16T01:55:58.122Z,49.35
2023-02-16T01:58:47.577Z,50.42
2023-02-16T02:01:39.170Z,50.75
2023-02-16T02:04:57.306Z,51.70
2023-02-16T02:07:45.674Z,50.15
2023-02-16T02:10:30.466Z,55.10
2023-02-16T02:13:04.017Z,53.05
2023-02-16T02:15:32.413Z,50.20
2023-02-16T02:17:59.018Z,46.13
2023-02-16T02:21:00.210Z,44.20
2023-02-16T02:23:48.124Z,52.33
2023-02-16T02:26:56.221Z,45.08
2023-02-16T02:29:28.792Z,46.50
2023-02-16T02:32:08.402Z,45.50
2023-02-16T02:34:56.186Z,47.50
2023-02-16T02:37:33.765Z,53.13
2023-02-16T02:40:21.438Z,48.75
2023-02-16T02:43:03.001Z,45.80
2023-02-16T02:45:34.700Z,48.38
2023-02-16T02:48:01.121Z,44.08
2023-02-16T02:51:06.570Z,47.08
2023-02-16T02:53:50.480Z,45.78
2023-02-16T02:56:36.550Z,45.73
2023-02-16T02:59:27.953Z,50.92
2023-02-16T03:01:59.431Z,48.28
2023-02-16T03:04:29.436Z,47.25
2023-02-16T03:06:58.843Z,44.55
2023-02-16T03:09:25.699Z,49.57
2023-02-16T03:12:13.953Z,42.30
2023-02-16T03:14:46.498Z,45.35
2023-02-16T03:17:34.547Z,43.05
2023-02-16T03:20:22.703Z,43.08
2023-02-16T03:23:07.937Z,48.80
2023-02-16T03:25:55.767Z,41.05
2023-02-16T03:28:44.458Z,44.05
2023-02-16T03:31:15.442Z,47.88
2023-02-16T03:33:42.841Z,43.58
2023-02-16T03:36:09.794Z,47.47
2023-02-16T03:38:37.639Z,45.33
2023-02-16T03:41:04.642Z,49.63
2023-02-16T03:43:31.770Z,49.20
2023-02-16T03:45:58.390Z,47.47
2023-02-16T03:48:24.886Z,46.97
2023-02-16T03:50:51.306Z,41.05
2023-02-16T03:53:19.080Z,43.65
2023-02-16T03:55:47.981Z,46.08
2023-02-16T03:58:17.175Z,41.95
2023-02-16T04:00:44.185Z,49.87
2023-02-16T04:03:11.266Z,50.47
2023-02-16T04:05:38.489Z,51.38
2023-02-16T04:08:06.990Z,45.63
2023-02-16T04:10:33.502Z,40.85
2023-02-16T04:12:59.945Z,50.08
2023-02-16T04:15:28.754Z,47.00
2023-02-16T04:17:55.358Z,47.22
2023-02-16T04:20:24.805Z,48.33
2023-02-16T04:22:51.496Z,39.58
2023-02-16T04:25:18.856Z,46.60
2023-02-16T04:27:46.216Z,46.67
2023-02-16T04:30:16.988Z,48.97
2023-02-16T04:32:43.771Z,47.45
2023-02-16T04:35:10.730Z,46.20
2023-02-16T04:37:37.264Z,44.13
2023-02-16T04:40:05.569Z,47.80
2023-02-16T04:42:32.308Z,50.63
2023-02-16T04:44:58.712Z,42.15
2023-02-16T04:47:26.683Z,44.72
2023-02-16T04:49:53.751Z,46.10
2023-02-16T04:52:20.577Z,51.13
2023-02-16T04:54:47.044Z,49.55
2023-02-16T04:57:13.450Z,46.88
2023-02-16T04:59:39.824Z,44.65
2023-02-16T05:02:06.419Z,46.10
2023-02-16T05:04:33.361Z,48.58
2023-02-16T05:07:00.142Z,45.42
2023-02-16T05:09:26.630Z,44.30
2023-02-16T05:12:11.769Z,48.15
2023-02-16T05:14:46.896Z,43.10
2023-02-16T05:17:19.380Z,49.35
2023-02-16T05:19:51.904Z,48.85
2023-02-16T05:22:19.035Z,48.35
2023-02-16T05:24:45.608Z,48.33
2023-02-16T05:27:18.527Z,44.83
2023-02-16T05:29:45.202Z,46.20
2023-02-16T05:32:11.711Z,46.33
2023-02-16T05:34:38.338Z,45.83
2023-02-16T05:37:04.872Z,46.88
2023-02-16T05:39:31.453Z,56.80
2023-02-16T05:41:57.901Z,47.92
2023-02-16T05:44:24.460Z,52.67
2023-02-16T05:46:50.948Z,43.72
2023-02-16T05:49:17.977Z,48.70
2023-02-16T05:51:45.235Z,50.60
2023-02-16T05:54:17.080Z,49.20
2023-02-16T05:56:48.615Z,44.53
2023-02-16T05:59:16.049Z,52.85
2023-02-16T06:01:42.666Z,48.25
2023-02-16T06:04:10.687Z,46.70
2023-02-16T06:06:38.661Z,50.35
2023-02-16T06:09:06.524Z,49.95
2023-02-16T06:11:36.372Z,55.13
2023-02-16T06:14:08.462Z,46.80
2023-02-16T06:16:36.696Z,47.07
2023-02-16T06:19:03.780Z,49.10
2023-02-16T06:21:30.465Z,54.85
2023-02-16T06:23:57.079Z,50.95
2023-02-16T06:26:23.866Z,52.60
2023-02-16T06:28:50.421Z,47.93
2023-02-16T06:31:17.388Z,48.58
2023-02-16T06:33:44.582Z,50.47
2023-02-16T06:36:11.583Z,48.60
2023-02-16T06:38:38.129Z,58.25
2023-02-16T06:41:05.146Z,51.70
2023-02-16T06:43:32.081Z,49.53
2023-02-16T06:45:58.698Z,50.65
2023-02-16T06:48:25.374Z,52.90
2023-02-16T06:50:52.123Z,51.95
2023-02-16T06:53:18.739Z,50.37
2023-02-16T06:55:45.947Z,49.22
2023-02-16T06:58:13.048Z,51.72
2023-02-16T07:00:39.645Z,56.17
2023-02-16T07:03:06.214Z,50.15
2023-02-16T07:05:32.644Z,49.37
2023-02-16T07:07:59.021Z,51.75
2023-02-16T07:10:25.422Z,49.78
2023-02-16T07:12:51.799Z,53.13
2023-02-16T07:15:18.243Z,52.72
2023-02-16T07:17:44.663Z,53.47
2023-02-16T07:20:12.740Z,48.85
2023-02-16T07:22:39.261Z,53.58
2023-02-16T07:25:06.139Z,49.17
2023-02-16T07:27:32.540Z,52.28
2023-02-16T07:29:58.915Z,49.87
2023-02-16T07:32:25.343Z,48.85
2023-02-16T07:34:51.750Z,48.45
2023-02-16T07:37:18.121Z,56.72
2023-02-16T07:39:44.490Z,46.35
2023-02-16T07:42:10.835Z,47.87
2023-02-16T07:44:37.217Z,50.67
2023-02-16T07:47:03.565Z,48.95
2023-02-16T07:49:29.951Z,51.20
2023-02-16T07:51:56.373Z,52.22
2023-02-16T07:54:22.777Z,51.00
2023-02-16T07:56:49.189Z,48.65
2023-02-16T07:59:16.943Z,51.38
2023-02-16T08:01:43.329Z,51.67
2023-02-16T08:04:09.748Z,50.28
2023-02-16T08:06:36.119Z,50.43
2023-02-16T08:09:02.529Z,56.15
2023-02-16T08:11:29.013Z,50.42
2023-02-16T08:13:55.635Z,49.45
2023-02-16T08:16:25.013Z,52.55
2023-02-16T08:18:52.273Z,48.00
2023-02-16T08:21:24.830Z,49.67
2023-02-16T08:23:55.546Z,49.78
2023-02-16T08:26:23.435Z,48.65
2023-02-16T08:28:50.506Z,54.88
2023-02-16T08:31:23.280Z,48.53
2023-02-16T08:33:50.831Z,50.00
2023-02-16T08:36:25.427Z,50.78
2023-02-16T08:38:53.486Z,49.45
2023-02-16T08:41:22.042Z,46.53
2023-02-16T08:43:49.172Z,47.97
2023-02-16T08:46:16.374Z,49.78
2023-02-16T08:48:45.055Z,49.03
2023-02-16T08:51:17.706Z,47.50
2023-02-16T08:53:45.292Z,50.08
2023-02-16T08:56:11.909Z,46.17
2023-02-16T08:58:38.780Z,53.90
2023-02-16T09:01:10.039Z,46.17
2023-02-16T09:03:38.421Z,48.92
2023-02-16T09:06:06.334Z,48.88
2023-02-16T09:08:33.265Z,45.53
2023-02-16T09:11:05.709Z,45.97
2023-02-16T09:13:36.412Z,48.75
2023-02-16T09:16:11.440Z,45.25
2023-02-16T09:18:39.325Z,53.60
2023-02-16T09:21:10.986Z,45.60
2023-02-16T09:23:38.777Z,47.58
2023-02-16T09:26:09.721Z,45.97
2023-02-16T09:28:38.160Z,46.72
2023-02-16T09:31:20.188Z,49.35
2023-02-16T09:33:46.871Z,48.93
2023-02-16T09:36:13.936Z,48.28
2023-02-16T09:38:40.874Z,51.60
2023-02-16T09:41:22.764Z,65.60
2023-02-16T09:43:57.680Z,53.17
2023-02-16T09:46:26.007Z,54.53
2023-02-16T09:48:53.092Z,51.55
2023-02-16T09:51:34.759Z,48.97
2023-02-16T09:54:31.868Z,50.05
2023-02-16T09:57:08.235Z,52.05
2023-02-16T09:59:40.975Z,51.47
2023-02-16T10:02:32.548Z,55.10
2023-02-16T10:05:17.350Z,47.42
2023-02-16T10:07:58.834Z,51.58
2023-02-16T10:10:58.197Z,50.40
2023-02-16T10:13:49.521Z,53.70
2023-02-16T10:16:22.950Z,50.33
2023-02-16T10:18:53.730Z,51.10
2023-02-16T10:21:26.074Z,47.95
2023-02-16T10:23:57.589Z,54.63
2023-02-16T10:26:42.766Z,56.40
2023-02-16T10:29:18.956Z,55.78
2023-02-16T10:31:54.538Z,51.45
2023-02-16T10:34:48.874Z,46.85
2023-02-16T10:37:42.566Z,51.78
2023-02-16T10:40:26.357Z,50.37
2023-02-16T10:43:11.272Z,54.22
2023-02-16T10:45:51.943Z,55.10
2023-02-16T10:48:20.949Z,50.83
2023-02-16T10:51:12.816Z,52.10
2023-02-16T10:53:44.531Z,47.93
2023-02-16T10:56:37.312Z,48.88
2023-02-16T10:59:07.870Z,49.85
2023-02-16T11:01:43.430Z,49.10
2023-02-16T11:04:29.387Z,52.95
2023-02-16T11:07:09.637Z,44.20
2023-02-16T11:09:37.231Z,48.55
2023-02-16T11:12:15.617Z,51.95
2023-02-16T11:14:49.435Z,48.85
2023-02-16T11:17:18.219Z,51.42
2023-02-16T11:20:05.771Z,50.10
2023-02-16T11:22:39.681Z,51.40
2023-02-16T11:25:18.205Z,49.50
2023-02-16T11:27:55.304Z,51.88
2023-02-16T11:30:29.505Z,46.45
2023-02-16T11:32:57.206Z,51.23
2023-02-16T11:35:23.658Z,48.22
2023-02-16T11:37:50.583Z,47.97
2023-02-16T11:40:31.797Z,45.78
2023-02-16T11:43:00.235Z,47.17
2023-02-16T11:45:31.503Z,46.77
2023-02-16T11:48:13.774Z,50.05
2023-02-16T11:50:56.922Z,49.95
2023-02-16T11:53:27.523Z,50.92
2023-02-16T11:56:27.334Z,51.85
2023-02-16T11:59:04.655Z,45.77
2023-02-16T12:01:41.938Z,46.20
2023-02-16T12:04:31.333Z,43.35
2023-02-16T12:07:16.539Z,45.00
2023-02-16T12:09:49.069Z,44.35
2023-02-16T12:12:40.291Z,51.27
2023-02-16T12:15:32.897Z,46.97
2023-02-16T12:18:47.014Z,52.17
2023-02-16T12:21:46.396Z,43.67
2023-02-16T12:24:20.885Z,49.55
2023-02-16T12:26:54.256Z,44.67
2023-02-16T12:29:45.936Z,49.17
2023-02-16T12:32:30.358Z,52.47
2023-02-16T12:35:17.842Z,51.13
2023-02-16T12:37:56.672Z,51.67
2023-02-16T12:40:49.973Z,50.80
2023-02-16T12:43:28.409Z,48.45
2023-02-16T12:46:00.261Z,47.70
2023-02-16T12:49:14.999Z,46.38
2023-02-16T12:51:53.683Z,47.60
2023-02-16T12:54:42.881Z,47.73
2023-02-16T12:57:26.140Z,45.78
2023-02-16T13:00:02.633Z,44.47
2023-02-16T13:02:36.982Z,43.33
2023-02-16T13:05:10.800Z,42.30
2023-02-16T13:07:49.334Z,39.50
2023-02-16T13:10:30.585Z,43.28
2023-02-16T13:13:02.853Z,43.92
2023-02-16T13:15:43.427Z,43.22
2023-02-16T13:18:21.969Z,42.25
2023-02-16T13:20:53.862Z,41.00
2023-02-16T13:23:49.300Z,43.47
2023-02-16T13:26:33.841Z,44.80
2023-02-16T13:29:23.171Z,35.70
2023-02-16T13:32:21.137Z,38.63
2023-02-16T13:35:17.053Z,36.33
2023-02-16T13:37:58.677Z,38.50
2023-02-16T13:40:42.361Z,38.95
2023-02-16T13:43:31.071Z,37.38
2023-02-16T13:45:59.661Z,39.17
2023-02-16T13:48:30.907Z,36.43
2023-02-16T13:51:16.607Z,33.28
2023-02-16T13:53:51.526Z,33.40
2023-02-16T13:56:30.739Z,31.25
2023-02-16T13:59:21.055Z,34.17
2023-02-16T14:01:53.628Z,29.90
2023-02-16T14:04:23.036Z,31.52
2023-02-16T14:07:10.238Z,33.85
2023-02-16T14:09:39.844Z,30.00
2023-02-16T14:12:09.434Z,31.05
2023-02-16T14:14:43.831Z,30.93
2023-02-16T14:17:26.017Z,27.92
2023-02-16T14:19:59.397Z,26.13
2023-02-16T14:22:48.774Z,29.50
2023-02-16T14:25:24.361Z,30.20
2023-02-16T14:27:58.722Z,28.80
2023-02-16T14:30:34.228Z,28.10
2023-02-16T14:33:12.770Z,25.52
2023-02-16T14:35:41.999Z,26.88
2023-02-16T14:38:23.490Z,34.33
2023-02-16T14:41:03.159Z,33.27
2023-02-16T14:43:47.300Z,45.00
2023-02-16T14:46:55.655Z,34.05
2023-02-16T14:49:28.316Z,25.73
2023-02-16T14:52:13.865Z,40.63
2023-02-16T14:54:50.926Z,36.50
2023-02-16T14:57:49.711Z,28.95
2023-02-16T15:00:34.338Z,26.55
2023-02-16T15:03:22.963Z,25.58
2023-02-16T15:05:59.096Z,29.30
2023-02-16T15:08:35.020Z,20.93
2023-02-16T15:12:01.174Z,26.00
2023-02-16T15:14:31.335Z,20.58
2023-02-16T15:16:58.212Z,17.38
2023-02-16T15:19:29.975Z,19.52
2023-02-16T15:22:18.345Z,21.13
2023-02-16T15:24:54.805Z,18.35
2023-02-16T15:27:23.390Z,19.00
2023-02-16T15:30:17.194Z,19.45
2023-02-16T15:32:52.249Z,23.80
2023-02-16T15:35:25.705Z,24.53
2023-02-16T15:38:07.113Z,23.80
2023-02-16T15:40:35.178Z,21.35
2023-02-16T15:43:10.020Z,27.60
2023-02-16T15:45:38.110Z,18.92
2023-02-16T15:48:15.330Z,21.30
2023-02-16T15:50:43.387Z,21.17
2023-02-16T15:53:34.884Z,25.33
2023-02-16T15:56:04.836Z,26.85
2023-02-16T15:58:32.888Z,22.42
2023-02-16T16:01:00.439Z,22.53
2023-02-16T16:03:27.092Z,25.20
2023-02-16T16:05:58.926Z,21.95
2023-02-16T16:08:27.755Z,23.40
2023-02-16T16:10:55.347Z,26.83
2023-02-16T16:13:26.500Z,30.97
2023-02-16T16:15:57.968Z,25.88
2023-02-16T16:18:50.227Z,26.08
2023-02-16T16:21:23.882Z,30.52
2023-02-16T16:24:00.979Z,23.48
2023-02-16T16:26:29.811Z,23.03
2023-02-16T16:28:56.934Z,23.73
2023-02-16T16:31:23.443Z,23.70
2023-02-16T16:33:57.651Z,25.02
2023-02-16T16:36:46.832Z,26.08
2023-02-16T16:39:16.180Z,27.60
2023-02-16T16:41:45.617Z,34.80
2023-02-16T16:44:26.353Z,65.47
2023-02-16T16:46:52.793Z,27.92
2023-02-16T16:49:19.788Z,32.45
2023-02-16T16:51:52.222Z,25.20
2023-02-16T16:54:40.487Z,27.70
2023-02-16T16:57:15.590Z,24.38
2023-02-16T16:59:41.945Z,24.88
2023-02-16T17:02:10.976Z,26.17
2023-02-16T17:04:37.439Z,25.60
2023-02-16T17:07:03.861Z,28.05
2023-02-16T17:09:30.242Z,32.85
2023-02-16T17:11:56.683Z,26.90
2023-02-16T17:14:26.372Z,25.23
2023-02-16T17:16:55.075Z,32.93
2023-02-16T17:19:23.258Z,30.48
2023-02-16T17:21:50.000Z,26.13
2023-02-16T17:24:16.819Z,24.15
2023-02-16T17:26:43.444Z,32.72
2023-02-16T17:29:09.787Z,29.20
2023-02-16T17:31:36.278Z,31.13
2023-02-16T17:34:02.800Z,37.65
2023-02-16T17:36:29.275Z,31.27
2023-02-16T17:38:55.788Z,37.60
2023-02-16T17:41:25.770Z,35.50
2023-02-16T17:43:52.510Z,32.28
2023-02-16T17:46:31.807Z,32.47
2023-02-16T17:48:58.253Z,40.72
2023-02-16T17:51:25.504Z,36.47
2023-02-16T17:53:51.943Z,33.63
2023-02-16T17:56:21.602Z,30.05
2023-02-16T17:58:48.458Z,33.63
2023-02-16T18:01:16.668Z,37.85
2023-02-16T18:03:43.422Z,32.90
2023-02-16T18:06:14.701Z,33.70
2023-02-16T18:08:41.215Z,34.80
2023-02-16T18:11:07.616Z,33.53
2023-02-16T18:13:34.876Z,34.15
2023-02-16T18:16:03.815Z,32.17
2023-02-16T18:18:30.648Z,35.83
2023-02-16T18:20:57.130Z,31.83
2023-02-16T18:23:23.597Z,33.17
2023-02-16T18:25:49.961Z,33.45
2023-02-16T18:28:18.877Z,37.35
2023-02-16T18:30:47.728Z,36.03
2023-02-16T18:33:14.334Z,34.97
2023-02-16T18:35:41.316Z,34.25
2023-02-16T18:38:07.931Z,31.17
2023-02-16T18:40:34.362Z,30.23
2023-02-16T18:43:00.893Z,33.43
2023-02-16T18:45:27.324Z,47.20
2023-02-16T18:47:53.691Z,37.13
2023-02-16T18:50:20.231Z,29.33
2023-02-16T18:52:47.180Z,32.30
2023-02-16T18:55:15.157Z,29.83
2023-02-16T18:57:42.176Z,28.23
2023-02-16T19:00:10.522Z,28.92
2023-02-16T19:02:37.125Z,25.95
2023-02-16T19:05:04.137Z,29.58
2023-02-16T19:07:30.544Z,27.90
2023-02-16T19:09:56.968Z,30.25
2023-02-16T19:12:23.560Z,24.95
2023-02-16T19:14:49.970Z,26.23
2023-02-16T19:17:16.406Z,26.65
2023-02-16T19:19:42.866Z,26.67
2023-02-16T19:22:09.492Z,22.10
2023-02-16T19:24:35.869Z,24.98
2023-02-16T19:27:02.995Z,25.92
2023-02-16T19:29:29.411Z,25.80
2023-02-16T19:31:55.951Z,26.80
2023-02-16T19:34:22.454Z,25.08
2023-02-16T19:36:48.924Z,27.02
2023-02-16T19:39:15.389Z,22.05
2023-02-16T19:41:43.804Z,21.95
2023-02-16T19:44:14.392Z,19.70
2023-02-16T19:46:41.507Z,23.10
2023-02-16T19:49:08.152Z,21.48
2023-02-16T19:51:34.547Z,22.17
2023-02-16T19:54:00.946Z,22.38
2023-02-16T19:56:27.524Z,25.83
2023-02-16T19:58:55.948Z,21.23
2023-02-16T20:01:25.361Z,18.35
2023-02-16T20:03:52.951Z,22.30
2023-02-16T20:06:31.377Z,22.23
2023-02-16T20:08:59.769Z,19.50
2023-02-16T20:11:28.876Z,19.02
2023-02-16T20:13:56.133Z,18.77
2023-02-16T20:16:23.731Z,18.40
2023-02-16T20:18:50.619Z,18.52
2023-02-16T20:21:19.820Z,17.03
2023-02-16T20:23:48.004Z,16.05
2023-02-16T20:26:18.922Z,14.90
2023-02-16T20:28:45.688Z,14.27
2023-02-16T20:31:16.576Z,16.85
2023-02-16T20:33:44.235Z,17.67
2023-02-16T20:36:11.349Z,16.60
2023-02-16T20:38:38.223Z,15.10
2023-02-16T20:41:05.422Z,14.68
2023-02-16T20:43:32.281Z,10.93
2023-02-16T20:45:59.925Z,11.90
2023-02-16T20:48:27.149Z,13.10
2023-02-16T20:50:59.477Z,13.73
2023-02-16T20:53:28.871Z,12.35
2023-02-16T20:56:04.847Z,12.38
2023-02-16T20:58:32.309Z,11.33
2023-02-16T21:00:58.756Z,10.80
2023-02-16T21:03:25.440Z,11.98
2023-02-16T21:05:51.908Z,12.13
2023-02-16T21:08:18.366Z,11.77
2023-02-16T21:10:44.761Z,10.20
2023-02-16T21:13:11.171Z,10.27
2023-02-16T21:15:37.629Z,12.10
2023-02-16T21:18:05.096Z,11.90
2023-02-16T21:20:31.665Z,9.55
2023-02-16T21:22:58.189Z,11.57
2023-02-16T21:25:24.897Z,8.07
2023-02-16T21:27:51.313Z,8.23
2023-02-16T21:30:18.025Z,9.90
2023-02-16T21:32:44.640Z,9.98
2023-02-16T21:35:11.066Z,8.73
2023-02-16T21:37:38.610Z,9.23
2023-02-16T21:40:25.771Z,10.73
2023-02-16T21:42:52.819Z,11.73
2023-02-16T21:45:19.245Z,10.75
2023-02-16T21:48:05.548Z,11.00
2023-02-16T21:50:36.587Z,17.77
2023-02-16T21:53:04.627Z,21.02
2023-02-16T21:55:50.196Z,102.15
2023-02-16T21:58:16.901Z,49.00
2023-02-16T22:00:43.894Z,16.37
2023-02-16T22:03:12.590Z,10.73
2023-02-16T22:05:39.029Z,104.22
2023-02-16T22:08:05.648Z,14.95
2023-02-16T22:10:34.227Z,9.45
2023-02-16T22:13:00.875Z,15.30
2023-02-16T22:15:27.389Z,18.73
2023-02-16T22:17:53.807Z,9.05
2023-02-16T22:20:20.649Z,7.93
2023-02-16T22:22:47.306Z,19.67
2023-02-16T22:25:14.174Z,21.60
2023-02-16T22:27:40.688Z,14.63
2023-02-16T22:30:08.282Z,8.68
2023-02-16T22:32:34.900Z,9.75
2023-02-16T22:35:01.299Z,8.60
2023-02-16T22:37:27.754Z,13.33
2023-02-16T22:39:55.152Z,20.40
2023-02-16T22:42:22.256Z,13.77
2023-02-16T22:44:49.047Z,10.82
2023-02-16T22:47:15.543Z,8.45
2023-02-16T22:49:41.991Z,8.87
2023-02-16T22:52:10.994Z,9.18
2023-02-16T22:54:38.045Z,8.05
2023-02-16T22:57:04.737Z,13.02
2023-02-16T22:59:31.134Z,12.43
2023-02-16T23:01:57.520Z,13.23
2023-02-16T23:04:24.142Z,10.57
2023-02-16T23:06:50.595Z,9.75
2023-02-16T23:09:22.216Z,9.93
2023-02-16T23:11:49.898Z,9.23
2023-02-16T23:14:17.733Z,8.13
2023-02-16T23:16:46.507Z,10.77
2023-02-16T23:19:16.868Z,8.15
2023-02-16T23:21:43.643Z,11.48
2023-02-16T23:24:15.534Z,9.80
2023-02-16T23:26:42.605Z,11.70
2023-02-16T23:29:09.443Z,11.98
2023-02-16T23:31:38.195Z,10.07
2023-02-16T23:34:05.840Z,10.82
2023-02-16T23:36:33.780Z,10.98
2023-02-16T23:39:05.781Z,11.07
2023-02-16T23:41:32.220Z,13.88
2023-02-16T23:44:00.958Z,15.93
2023-02-16T23:46:28.072Z,10.88
2023-02-16T23:48:54.546Z,15.80
2023-02-16T23:51:20.941Z,12.13
2023-02-16T23:53:47.508Z,15.07
2023-02-16T23:56:26.516Z,15.68
2023-02-16T23:58:57.038Z,16.35
